createdAt,value
2023-04-06T00:01:03.009Z,-1.05
2023-04-06T00:03:48.763Z,-0.61
2023-04-06T00:06:34.935Z,-0.59
2023-04-06T00:09:20.805Z,-0.63
2023-04-06T00:12:06.641Z,-0.95
2023-04-06T00:14:55.396Z,-0.91
2023-04-06T00:17:41.546Z,-0.81
2023-04-06T00:20:27.028Z,-1.43
2023-04-06T00:23:12.518Z,-0.66
2023-04-06T00:25:58.287Z,-0.69
2023-04-06T00:28:43.635Z,-2.07
2023-04-06T00:31:29.285Z,-2.14
2023-04-06T00:34:16.945Z,-0.92
2023-04-06T00:37:02.802Z,-2.08
2023-04-06T00:39:49.493Z,-2.14
2023-04-06T00:42:34.936Z,-0.68
2023-04-06T00:45:20.588Z,-0.95
2023-04-06T00:48:08.312Z,-0.93
2023-04-06T00:50:56.018Z,-0.83
2023-04-06T00:53:41.539Z,-1.96
2023-04-06T00:56:29.196Z,-1.99
2023-04-06T00:59:14.567Z,-2.24
2023-04-06T01:02:01.047Z,-0.84
2023-04-06T01:04:58.713Z,-1.39
2023-04-06T01:07:55.420Z,-2.35
2023-04-06T01:10:44.452Z,-2.29
2023-04-06T01:13:40.492Z,-0.89
2023-04-06T01:16:34.038Z,-2.36
2023-04-06T01:19:29.192Z,-0.93
2023-04-06T01:22:17.865Z,-1.24
2023-04-06T01:25:12.028Z,-0.94
2023-04-06T01:28:20.391Z,-1.13
2023-04-06T01:31:23.885Z,-1.42
2023-04-06T01:34:11.959Z,-1.00
2023-04-06T01:36:57.672Z,-1.26
2023-04-06T01:39:49.299Z,-0.95
2023-04-06T01:42:44.921Z,-1.01
2023-04-06T01:45:36.643Z,-1.20
2023-04-06T01:48:33.959Z,-1.18
2023-04-06T01:51:26.912Z,-1.04
2023-04-06T01:54:17.584Z,-1.07
2023-04-06T01:57:16.021Z,-1.37
2023-04-06T02:00:15.610Z,-1.32
2023-04-06T02:03:06.274Z,-1.08
2023-04-06T02:05:52.319Z,-1.18
2023-04-06T02:08:52.484Z,-1.30
2023-04-06T02:11:38.440Z,-1.21
2023-04-06T02:14:26.948Z,-2.19
2023-04-06T02:17:16.596Z,-1.02
2023-04-06T02:20:03.296Z,-1.83
2023-04-06T02:22:48.613Z,-1.21
2023-04-06T02:25:34.486Z,-1.00
2023-04-06T02:28:20.000Z,-0.96
2023-04-06T02:31:06.055Z,-2.20
2023-04-06T02:33:51.485Z,-2.15
2023-04-06T02:36:37.958Z,-1.05
2023-04-06T02:39:23.782Z,-1.04
2023-04-06T02:42:09.977Z,-1.09
2023-04-06T02:44:55.613Z,-1.33
2023-04-06T02:47:45.042Z,-1.11
2023-04-06T02:50:34.417Z,-0.92
2023-04-06T02:53:23.901Z,-0.91
2023-04-06T02:56:09.966Z,-0.92
2023-04-06T02:59:03.936Z,-0.84
2023-04-06T03:01:51.827Z,-0.86
2023-04-06T03:04:37.903Z,-1.97
2023-04-06T03:07:27.528Z,-0.82
2023-04-06T03:10:14.014Z,-2.24
2023-04-06T03:13:00.378Z,-1.44
2023-04-06T03:16:07.692Z,-0.83
2023-04-06T03:18:54.373Z,-1.10
2023-04-06T03:21:40.788Z,-2.33
2023-04-06T03:24:27.262Z,-1.06
2023-04-06T03:27:12.877Z,-2.12
2023-04-06T03:29:59.799Z,-1.12
2023-04-06T03:32:51.424Z,-1.01
2023-04-06T03:35:39.149Z,-0.99
2023-04-06T03:38:25.970Z,-0.93
2023-04-06T03:41:12.036Z,-1.26
2023-04-06T03:44:00.142Z,-1.06
2023-04-06T03:46:45.716Z,-0.93
2023-04-06T03:49:31.633Z,-2.36
2023-04-06T03:52:18.175Z,-1.69
2023-04-06T03:55:03.999Z,-0.95
2023-04-06T03:57:49.703Z,-2.29
2023-04-06T04:00:35.470Z,-2.23
2023-04-06T04:03:22.661Z,-2.12
2023-04-06T04:06:08.468Z,-0.80
2023-04-06T04:08:54.110Z,-0.80
2023-04-06T04:11:39.821Z,-0.71
2023-04-06T04:14:26.478Z,-2.14
2023-04-06T04:17:12.122Z,-2.04
2023-04-06T04:19:57.835Z,-2.20
2023-04-06T04:22:45.888Z,-0.60
2023-04-06T04:25:31.871Z,-0.60
2023-04-06T04:28:17.360Z,-2.01
2023-04-06T04:31:05.460Z,-0.61
2023-04-06T04:33:53.511Z,-0.89
2023-04-06T04:36:45.699Z,-0.76
2023-04-06T04:39:39.456Z,-1.73
2023-04-06T04:42:26.465Z,-1.89
2023-04-06T04:45:15.495Z,-1.94
2023-04-06T04:48:02.088Z,-0.51
2023-04-06T04:50:56.570Z,-2.08
2023-04-06T04:53:46.452Z,-0.98
2023-04-06T04:56:43.980Z,-0.79
2023-04-06T04:59:44.060Z,-0.52
2023-04-06T05:02:45.451Z,-0.58
2023-04-06T05:05:39.214Z,-1.18
2023-04-06T05:08:25.629Z,-0.59
2023-04-06T05:11:14.409Z,-1.28
2023-04-06T05:14:28.183Z,-0.48
2023-04-06T05:17:21.402Z,-1.47
2023-04-06T05:20:10.873Z,-0.42
2023-04-06T05:23:47.304Z,-0.38
2023-04-06T05:26:32.763Z,-1.90
2023-04-06T05:29:42.985Z,-0.34
2023-04-06T05:32:29.189Z,-0.31
2023-04-06T05:35:15.914Z,-0.29
2023-04-06T05:38:09.310Z,-0.35
2023-04-06T05:44:32.018Z,-0.16
2023-04-06T05:47:59.916Z,-0.20
2023-04-06T05:51:10.218Z,-0.30
2023-04-06T05:54:15.058Z,-1.33
2023-04-06T05:57:19.492Z,-0.21
2023-04-06T06:00:16.299Z,-0.12
2023-04-06T06:03:16.356Z,-2.62
2023-04-06T06:06:16.736Z,-0.13
2023-04-06T06:09:23.618Z,-0.08
2023-04-06T06:12:42.118Z,-0.08
2023-04-06T06:15:38.814Z,-0.27
2023-04-06T06:18:30.696Z,-0.26
2023-04-06T06:21:22.015Z,-1.26
2023-04-06T06:24:22.756Z,-0.06
2023-04-06T06:27:43.797Z,-0.05
2023-04-06T06:31:03.743Z,-0.01
2023-04-06T06:34:24.528Z,0.07
2023-04-06T06:40:41.679Z,-0.69
2023-04-06T06:43:39.087Z,0.07
2023-04-06T06:46:33.806Z,0.08
2023-04-06T06:49:20.775Z,-1.02
2023-04-06T06:52:06.287Z,-1.24
2023-04-06T06:54:51.803Z,-1.29
2023-04-06T06:57:39.560Z,-0.14
2023-04-06T07:00:27.070Z,-0.89
2023-04-06T07:03:13.124Z,0.18
2023-04-06T07:05:58.660Z,-0.03
2023-04-06T07:08:45.593Z,0.16
2023-04-06T07:11:31.527Z,0.12
2023-04-06T07:14:18.094Z,0.27
2023-04-06T07:17:04.465Z,-1.39
2023-04-06T07:19:50.669Z,-0.87
2023-04-06T07:22:36.514Z,-1.13
2023-04-06T07:25:25.169Z,-0.12
2023-04-06T07:28:11.292Z,0.03
2023-04-06T07:30:57.645Z,-0.98
2023-04-06T07:33:44.148Z,0.30
2023-04-06T07:36:30.142Z,0.29
2023-04-06T07:39:25.491Z,0.37
2023-04-06T07:42:18.152Z,0.15
2023-04-06T07:45:05.357Z,0.15
2023-04-06T07:47:51.885Z,-0.57
2023-04-06T07:50:37.651Z,0.21
2023-04-06T07:53:25.120Z,0.30
2023-04-06T07:56:10.901Z,0.40
2023-04-06T07:58:58.303Z,0.40
2023-04-06T08:01:44.307Z,-0.66
2023-04-06T08:04:29.783Z,0.38
2023-04-06T08:07:15.436Z,-0.81
2023-04-06T08:10:36.103Z,0.16
2023-04-06T08:13:22.056Z,0.42
2023-04-06T08:16:08.921Z,-0.03
2023-04-06T08:18:54.164Z,0.07
2023-04-06T08:21:43.574Z,-0.94
2023-04-06T08:24:29.616Z,0.51
2023-04-06T08:27:15.867Z,0.55
2023-04-06T08:30:02.607Z,0.59
2023-04-06T08:32:48.539Z,0.58
2023-04-06T08:35:39.980Z,0.56
2023-04-06T08:38:58.668Z,0.63
2023-04-06T08:42:08.623Z,0.58
2023-04-06T08:45:16.097Z,0.47
2023-04-06T08:48:09.466Z,-0.84
2023-04-06T08:50:56.248Z,0.50
2023-04-06T08:53:42.187Z,0.52
2023-04-06T08:56:29.515Z,0.60
2023-04-06T08:59:16.105Z,0.61
2023-04-06T09:02:06.473Z,0.64
2023-04-06T09:04:54.730Z,0.51
2023-04-06T09:07:40.596Z,0.64
2023-04-06T09:10:26.887Z,0.48
2023-04-06T09:13:12.555Z,-0.47
2023-04-06T09:16:06.178Z,-0.63
2023-04-06T09:18:51.697Z,0.59
2023-04-06T09:21:38.043Z,0.70
2023-04-06T09:24:27.223Z,0.45
2023-04-06T09:27:13.629Z,0.66
2023-04-06T09:30:06.318Z,0.71
2023-04-06T09:32:53.806Z,-0.67
2023-04-06T09:35:40.077Z,0.70
2023-04-06T09:38:26.117Z,-0.33
2023-04-06T09:41:11.874Z,0.71
2023-04-06T09:44:07.991Z,0.75
2023-04-06T09:46:59.598Z,0.52
2023-04-06T09:49:51.103Z,0.57
2023-04-06T09:52:52.345Z,0.73
2023-04-06T09:55:44.266Z,0.71
2023-04-06T09:58:35.050Z,0.76
2023-04-06T10:01:21.827Z,0.65
2023-04-06T10:04:19.634Z,0.72
2023-04-06T10:07:07.801Z,0.69
2023-04-06T10:09:56.375Z,0.76
2023-04-06T10:12:43.551Z,0.78
2023-04-06T10:15:32.465Z,-0.05
2023-04-06T10:18:18.743Z,0.76
2023-04-06T10:21:12.848Z,0.65
2023-04-06T10:24:03.483Z,0.81
2023-04-06T10:27:28.024Z,0.83
2023-04-06T10:30:17.064Z,0.90
2023-04-06T10:33:17.374Z,0.92
2023-04-06T10:36:23.428Z,0.59
2023-04-06T10:39:09.227Z,0.27
2023-04-06T10:41:54.984Z,0.79
2023-04-06T10:44:45.817Z,0.83
2023-04-06T10:47:41.047Z,0.83
2023-04-06T10:50:27.216Z,0.83
2023-04-06T10:53:12.609Z,0.82
2023-04-06T10:55:59.002Z,0.27
2023-04-06T10:58:53.917Z,-0.41
2023-04-06T11:01:46.715Z,0.77
2023-04-06T11:04:32.655Z,0.00
2023-04-06T11:07:24.688Z,0.71
2023-04-06T11:10:16.584Z,0.98
2023-04-06T11:13:03.599Z,1.06
2023-04-06T11:15:50.202Z,0.59
2023-04-06T11:18:36.267Z,0.16
2023-04-06T11:21:41.215Z,0.89
2023-04-06T11:24:30.663Z,1.06
2023-04-06T11:27:19.412Z,1.06
2023-04-06T11:30:06.479Z,-0.22
2023-04-06T11:32:52.863Z,0.88
2023-04-06T11:35:38.471Z,-0.31
2023-04-06T11:38:24.046Z,1.10
2023-04-06T11:41:09.924Z,1.08
2023-04-06T11:43:57.020Z,-0.02
2023-04-06T11:46:52.182Z,1.06
2023-04-06T11:49:39.958Z,1.10
2023-04-06T11:52:28.542Z,-0.25
2023-04-06T11:55:17.002Z,1.10
2023-04-06T11:58:02.709Z,1.09
2023-04-06T12:00:48.342Z,0.92
2023-04-06T12:03:33.889Z,1.00
2023-04-06T12:06:19.811Z,0.95
2023-04-06T12:09:05.656Z,-0.08
2023-04-06T12:11:51.281Z,-0.32
2023-04-06T12:14:36.942Z,0.94
2023-04-06T12:17:22.615Z,-0.29
2023-04-06T12:20:22.111Z,0.84
2023-04-06T12:23:11.377Z,0.67
2023-04-06T12:25:57.373Z,0.91
2023-04-06T12:28:42.884Z,0.88
2023-04-06T12:31:29.549Z,0.93
2023-04-06T12:34:15.129Z,0.39
2023-04-06T12:37:00.708Z,-0.19
2023-04-06T12:39:47.268Z,-0.66
2023-04-06T12:42:32.611Z,-0.19
2023-04-06T12:45:18.945Z,0.73
2023-04-06T12:48:04.640Z,0.74
2023-04-06T12:51:01.541Z,0.90
2023-04-06T12:53:47.016Z,0.93
2023-04-06T12:56:33.738Z,0.89
2023-04-06T12:59:21.933Z,0.91
2023-04-06T13:02:07.622Z,0.83
2023-04-06T13:04:53.046Z,0.95
2023-04-06T13:07:38.828Z,0.96
2023-04-06T13:10:24.320Z,0.90
2023-04-06T13:13:10.373Z,0.72
2023-04-06T13:16:04.760Z,0.68
2023-04-06T13:18:51.317Z,-0.54
2023-04-06T13:21:36.994Z,0.86
2023-04-06T13:24:22.997Z,-0.48
2023-04-06T13:27:08.371Z,0.85
2023-04-06T13:29:55.846Z,0.89
2023-04-06T13:32:41.409Z,0.72
2023-04-06T13:35:27.713Z,0.87
2023-04-06T13:38:15.505Z,0.90
2023-04-06T13:41:01.196Z,0.90
2023-04-06T13:43:46.442Z,0.74
2023-04-06T13:46:31.990Z,0.75
2023-04-06T13:49:17.367Z,-0.56
2023-04-06T13:52:02.819Z,0.26
2023-04-06T13:54:49.406Z,0.78
2023-04-06T13:57:34.984Z,0.77
2023-04-06T14:00:20.889Z,0.79
2023-04-06T14:03:07.899Z,0.59
2023-04-06T14:05:53.410Z,0.80
2023-04-06T14:08:39.024Z,0.79
2023-04-06T14:11:25.488Z,0.80
2023-04-06T14:14:11.215Z,0.88
2023-04-06T14:16:57.065Z,0.86
2023-04-06T14:19:42.690Z,0.61
2023-04-06T14:25:14.104Z,0.81
2023-04-06T14:27:59.591Z,0.82
2023-04-06T14:30:45.634Z,-0.47
2023-04-06T14:33:31.699Z,1.00
2023-04-06T14:36:17.106Z,1.03
2023-04-06T14:39:13.876Z,1.09
2023-04-06T14:42:02.660Z,1.11
2023-04-06T14:45:16.884Z,1.13
2023-04-06T14:48:13.198Z,1.13
2023-04-06T14:50:59.866Z,1.12
2023-04-06T14:53:54.641Z,1.09
2023-04-06T14:56:40.516Z,1.06
2023-04-06T14:59:26.159Z,1.02
2023-04-06T15:02:16.787Z,1.04
2023-04-06T15:05:02.877Z,0.71
2023-04-06T15:07:48.635Z,1.05
2023-04-06T15:10:34.929Z,0.94
2023-04-06T15:13:21.390Z,0.97
2023-04-06T15:16:07.804Z,0.99
2023-04-06T15:18:53.871Z,0.72
2023-04-06T15:21:39.300Z,0.98
2023-04-06T15:24:24.990Z,0.57
2023-04-06T15:27:10.279Z,0.94
2023-04-06T15:29:55.717Z,0.06
2023-04-06T15:32:41.237Z,-0.27
2023-04-06T15:35:27.452Z,0.93
2023-04-06T15:38:12.820Z,0.73
2023-04-06T15:40:58.452Z,-0.39
2023-04-06T15:43:44.406Z,0.99
2023-04-06T15:46:30.776Z,-0.19
2023-04-06T15:49:16.490Z,0.94
2023-04-06T15:52:02.532Z,0.80
2023-04-06T15:54:48.082Z,0.82
2023-04-06T15:57:34.088Z,0.81
2023-04-06T16:00:20.109Z,0.76
2023-04-06T16:03:06.692Z,0.79
2023-04-06T16:06:08.231Z,0.95
2023-04-06T16:08:55.049Z,0.96
2023-04-06T16:11:42.034Z,0.94
2023-04-06T16:14:27.879Z,0.82
2023-04-06T16:17:23.631Z,0.93
2023-04-06T16:20:11.962Z,0.77
2023-04-06T16:22:58.250Z,1.01
2023-04-06T16:25:44.931Z,0.96
2023-04-06T16:28:31.526Z,0.79
2023-04-06T16:31:22.339Z,1.02
2023-04-06T16:34:08.686Z,1.03
2023-04-06T16:36:56.890Z,0.96
2023-04-06T16:39:42.795Z,0.84
2023-04-06T16:42:28.604Z,1.05
2023-04-06T16:45:15.958Z,-0.13
2023-04-06T16:48:06.789Z,0.99
2023-04-06T16:50:52.931Z,1.08
2023-04-06T16:53:39.332Z,1.05
2023-04-06T16:56:25.752Z,1.09
2023-04-06T16:59:11.697Z,0.91
2023-04-06T17:01:57.752Z,0.86
2023-04-06T17:04:43.618Z,1.14
2023-04-06T17:07:32.973Z,1.08
2023-04-06T17:10:24.264Z,1.10
2023-04-06T17:13:19.089Z,1.11
2023-04-06T17:16:07.968Z,1.11
2023-04-06T17:18:53.780Z,-0.03
2023-04-06T17:21:43.252Z,0.93
2023-04-06T17:24:29.207Z,1.07
2023-04-06T17:27:15.983Z,-0.23
2023-04-06T17:30:06.821Z,1.02
2023-04-06T17:32:52.653Z,1.20
2023-04-06T17:35:38.670Z,1.18
2023-04-06T17:38:25.329Z,1.21
2023-04-06T17:41:14.653Z,1.29
2023-04-06T17:44:00.969Z,0.85
2023-04-06T17:46:46.968Z,1.40
2023-04-06T17:49:32.429Z,1.43
2023-04-06T17:52:18.144Z,-0.03
2023-04-06T17:55:04.008Z,0.02
2023-04-06T17:57:49.900Z,0.90
2023-04-06T18:00:35.548Z,1.24
2023-04-06T18:03:20.974Z,1.44
2023-04-06T18:06:14.561Z,1.46
2023-04-06T18:09:01.012Z,1.41
2023-04-06T18:11:46.562Z,0.22
2023-04-06T18:14:32.229Z,1.41
2023-04-06T18:17:17.879Z,1.52
2023-04-06T18:20:03.911Z,1.43
2023-04-06T18:25:40.533Z,1.29
2023-04-06T18:28:25.779Z,1.52
2023-04-06T18:31:11.523Z,0.28
2023-04-06T18:33:57.594Z,1.42
2023-04-06T18:36:44.150Z,1.50
2023-04-06T18:39:29.435Z,1.48
2023-04-06T18:42:15.049Z,1.37
2023-04-06T18:45:00.796Z,1.48
2023-04-06T18:47:47.639Z,1.41
2023-04-06T18:50:33.259Z,1.21
2023-04-06T18:53:19.177Z,1.29
2023-04-06T18:56:15.714Z,1.46
2023-04-06T18:59:05.403Z,0.85
2023-04-06T19:01:54.098Z,1.26
2023-04-06T19:04:40.391Z,0.91
2023-04-06T19:07:27.101Z,1.37
2023-04-06T19:10:12.715Z,0.10
2023-04-06T19:13:22.822Z,1.39
2023-04-06T19:16:19.697Z,1.39
2023-04-06T19:19:06.280Z,1.43
2023-04-06T19:22:29.397Z,1.46
2023-04-06T19:25:49.796Z,1.41
2023-04-06T19:28:36.941Z,1.49
2023-04-06T19:31:23.037Z,1.47
2023-04-06T19:34:08.724Z,1.41
2023-04-06T19:37:05.446Z,1.61
2023-04-06T19:40:08.107Z,1.59
2023-04-06T19:43:38.421Z,1.67
2023-04-06T19:46:34.066Z,1.74
2023-04-06T19:49:19.551Z,1.78
2023-04-06T19:52:07.687Z,1.75
2023-04-06T19:54:53.171Z,1.74
2023-04-06T19:57:39.306Z,0.36
2023-04-06T20:00:24.946Z,1.71
2023-04-06T20:03:10.845Z,1.59
2023-04-06T20:09:28.980Z,1.73
2023-04-06T20:12:14.607Z,1.72
2023-04-06T20:15:01.702Z,1.58
2023-04-06T20:17:47.349Z,0.74
2023-04-06T20:20:33.106Z,1.57
2023-04-06T20:23:21.450Z,1.60
2023-04-06T20:26:11.648Z,1.71
2023-04-06T20:28:57.353Z,0.42
2023-04-06T20:31:43.319Z,1.69
2023-04-06T20:34:30.373Z,1.73
2023-04-06T20:37:16.629Z,1.75
2023-04-06T20:40:01.976Z,1.34
2023-04-06T20:42:48.804Z,1.25
2023-04-06T20:45:38.607Z,1.82
2023-04-06T20:48:25.665Z,1.77
2023-04-06T20:51:19.751Z,0.44
2023-04-06T20:54:05.330Z,0.54
2023-04-06T20:56:50.907Z,1.85
2023-04-06T20:59:37.816Z,1.34
2023-04-06T21:02:23.269Z,-2.21
2023-04-06T21:05:09.279Z,0.57
2023-04-06T21:07:55.515Z,0.54
2023-04-06T21:10:41.065Z,1.69
2023-04-06T21:13:27.192Z,1.39
2023-04-06T21:16:13.026Z,0.74
2023-04-06T21:19:01.608Z,1.84
2023-04-06T21:21:48.059Z,0.74
2023-04-06T21:24:33.679Z,0.53
2023-04-06T21:27:19.108Z,1.85
2023-04-06T21:30:04.689Z,1.80
2023-04-06T21:32:50.459Z,1.76
2023-04-06T21:35:40.740Z,1.49
2023-04-06T21:38:26.229Z,1.75
2023-04-06T21:41:11.703Z,1.00
2023-04-06T21:43:57.009Z,1.10
2023-04-06T21:46:42.615Z,0.70
2023-04-06T21:49:27.991Z,2.10
2023-04-06T21:52:13.490Z,2.15
2023-04-06T21:54:58.792Z,2.24
2023-04-06T21:57:44.645Z,2.07
2023-04-06T22:00:30.046Z,2.48
2023-04-06T22:03:15.792Z,1.26
2023-04-06T22:06:04.360Z,1.94
2023-04-06T22:08:50.086Z,2.56
2023-04-06T22:11:35.866Z,2.64
2023-04-06T22:14:21.747Z,1.29
2023-04-06T22:17:07.439Z,2.06
2023-04-06T22:19:52.867Z,2.34
2023-04-06T22:22:39.187Z,1.83
2023-04-06T22:25:24.871Z,2.75
2023-04-06T22:28:10.179Z,1.40
2023-04-06T22:30:55.693Z,2.80
2023-04-06T22:33:41.095Z,1.68
2023-04-06T22:36:27.122Z,1.55
2023-04-06T22:39:12.525Z,2.83
2023-04-06T22:41:58.023Z,2.36
2023-04-06T22:44:43.370Z,1.34
2023-04-06T22:47:29.593Z,1.20
2023-04-06T22:50:16.336Z,2.46
2023-04-06T22:53:02.397Z,2.08
2023-04-06T22:55:47.649Z,2.38
2023-04-06T22:58:33.092Z,2.16
2023-04-06T23:01:18.607Z,2.02
2023-04-06T23:04:04.411Z,2.42
2023-04-06T23:06:49.630Z,1.03
2023-04-06T23:09:35.053Z,1.81
2023-04-06T23:12:23.699Z,2.19
2023-04-06T23:15:09.988Z,1.95
2023-04-06T23:17:55.730Z,2.29
2023-04-06T23:20:41.343Z,1.85
2023-04-06T23:23:26.608Z,2.02
2023-04-06T23:26:12.009Z,2.21
2023-04-06T23:28:57.453Z,1.32
2023-04-06T23:31:42.718Z,0.99
2023-04-06T23:34:28.247Z,2.20
2023-04-06T23:37:13.814Z,1.90
2023-04-06T23:40:00.225Z,0.92
2023-04-06T23:42:46.250Z,2.16
2023-04-06T23:45:33.025Z,2.17
2023-04-06T23:48:18.402Z,2.00
2023-04-06T23:51:03.982Z,0.80
2023-04-06T23:53:49.367Z,1.94
2023-04-06T23:56:34.934Z,0.67
2023-04-06T23:59:20.343Z,0.76
